sensor_id;sensor_type;location;lat;lon;timestamp;P1;durP1;ratioP1;P2;durP2;ratioP2
72590;SDS011;60625;51.212;5.952;2022-08-30T00:03:08;8.50;;;2.50;;
72590;SDS011;60625;51.212;5.952;2022-08-30T00:08:12;10.40;;;2.60;;
72590;SDS011;60625;51.212;5.952;2022-08-30T00:13:13;8.00;;;2.10;;
72590;SDS011;60625;51.212;5.952;2022-08-30T00:18:15;6.20;;;2.20;;
72590;SDS011;60625;51.212;5.952;2022-08-30T00:23:18;6.40;;;2.70;;
72590;SDS011;60625;51.212;5.952;2022-08-30T00:28:19;7.60;;;2.60;;
72590;SDS011;60625;51.212;5.952;2022-08-30T00:33:20;12.80;;;2.50;;
72590;SDS011;60625;51.212;5.952;2022-08-30T00:38:21;8.70;;;2.50;;
72590;SDS011;60625;51.212;5.952;2022-08-30T00:43:26;6.30;;;2.80;;
72590;SDS011;60625;51.212;5.952;2022-08-30T00:48:29;8.10;;;2.50;;
72590;SDS011;60625;51.212;5.952;2022-08-30T00:53:35;13.20;;;3.30;;
72590;SDS011;60625;51.212;5.952;2022-08-30T00:58:42;9.40;;;3.20;;
72590;SDS011;60625;51.212;5.952;2022-08-30T01:03:45;8.70;;;2.60;;
72590;SDS011;60625;51.212;5.952;2022-08-30T01:08:47;9.10;;;2.90;;
72590;SDS011;60625;51.212;5.952;2022-08-30T01:13:49;7.80;;;3.10;;
72590;SDS011;60625;51.212;5.952;2022-08-30T01:18:52;9.10;;;3.00;;
72590;SDS011;60625;51.212;5.952;2022-08-30T01:23:56;8.30;;;3.30;;
72590;SDS011;60625;51.212;5.952;2022-08-30T01:29:03;9.70;;;3.40;;
72590;SDS011;60625;51.212;5.952;2022-08-30T01:34:06;10.50;;;3.60;;
72590;SDS011;60625;51.212;5.952;2022-08-30T01:39:08;9.70;;;4.20;;
72590;SDS011;60625;51.212;5.952;2022-08-30T01:44:11;9.70;;;3.50;;
72590;SDS011;60625;51.212;5.952;2022-08-30T01:49:15;7.50;;;3.10;;
72590;SDS011;60625;51.212;5.952;2022-08-30T01:54:17;8.50;;;3.80;;
72590;SDS011;60625;51.212;5.952;2022-08-30T01:59:17;10.50;;;3.90;;
72590;SDS011;60625;51.212;5.952;2022-08-30T02:04:18;9.00;;;3.30;;
72590;SDS011;60625;51.212;5.952;2022-08-30T02:09:19;9.50;;;3.10;;
72590;SDS011;60625;51.212;5.952;2022-08-30T02:14:20;9.00;;;3.80;;
72590;SDS011;60625;51.212;5.952;2022-08-30T02:19:20;9.40;;;3.70;;
72590;SDS011;60625;51.212;5.952;2022-08-30T02:24:21;9.70;;;3.80;;
72590;SDS011;60625;51.212;5.952;2022-08-30T02:29:23;8.40;;;3.20;;
72590;SDS011;60625;51.212;5.952;2022-08-30T02:34:24;7.30;;;3.40;;
72590;SDS011;60625;51.212;5.952;2022-08-30T02:39:25;7.10;;;3.10;;
72590;SDS011;60625;51.212;5.952;2022-08-30T02:44:25;9.60;;;3.70;;
72590;SDS011;60625;51.212;5.952;2022-08-30T02:49:26;7.40;;;3.50;;
72590;SDS011;60625;51.212;5.952;2022-08-30T02:54:26;11.30;;;4.00;;
72590;SDS011;60625;51.212;5.952;2022-08-30T02:59:27;8.10;;;3.10;;
72590;SDS011;60625;51.212;5.952;2022-08-30T03:04:28;6.90;;;3.10;;
72590;SDS011;60625;51.212;5.952;2022-08-30T03:09:29;9.50;;;3.20;;
72590;SDS011;60625;51.212;5.952;2022-08-30T03:14:29;9.90;;;4.10;;
72590;SDS011;60625;51.212;5.952;2022-08-30T03:19:31;10.60;;;3.70;;
72590;SDS011;60625;51.212;5.952;2022-08-30T03:24:33;6.90;;;3.50;;
72590;SDS011;60625;51.212;5.952;2022-08-30T03:29:34;8.70;;;3.70;;
72590;SDS011;60625;51.212;5.952;2022-08-30T03:34:35;7.20;;;3.00;;
72590;SDS011;60625;51.212;5.952;2022-08-30T03:39:35;6.30;;;3.40;;
72590;SDS011;60625;51.212;5.952;2022-08-30T03:44:36;12.50;;;3.80;;
72590;SDS011;60625;51.212;5.952;2022-08-30T03:49:37;8.00;;;3.30;;
72590;SDS011;60625;51.212;5.952;2022-08-30T03:54:38;8.30;;;3.40;;
72590;SDS011;60625;51.212;5.952;2022-08-30T03:59:39;6.90;;;3.30;;
72590;SDS011;60625;51.212;5.952;2022-08-30T04:04:40;10.40;;;3.70;;
72590;SDS011;60625;51.212;5.952;2022-08-30T04:09:40;6.40;;;3.50;;
72590;SDS011;60625;51.212;5.952;2022-08-30T04:14:41;8.30;;;3.60;;
72590;SDS011;60625;51.212;5.952;2022-08-30T04:19:41;7.90;;;3.40;;
72590;SDS011;60625;51.212;5.952;2022-08-30T04:24:42;7.90;;;3.90;;
72590;SDS011;60625;51.212;5.952;2022-08-30T04:29:42;7.30;;;3.50;;
72590;SDS011;60625;51.212;5.952;2022-08-30T04:34:43;9.00;;;3.90;;
72590;SDS011;60625;51.212;5.952;2022-08-30T04:39:43;8.80;;;4.20;;
72590;SDS011;60625;51.212;5.952;2022-08-30T04:44:45;8.00;;;4.10;;
72590;SDS011;60625;51.212;5.952;2022-08-30T04:49:46;7.40;;;3.90;;
72590;SDS011;60625;51.212;5.952;2022-08-30T04:54:46;8.60;;;4.00;;
72590;SDS011;60625;51.212;5.952;2022-08-30T04:59:47;9.30;;;3.80;;
72590;SDS011;60625;51.212;5.952;2022-08-30T05:04:47;8.50;;;3.60;;
72590;SDS011;60625;51.212;5.952;2022-08-30T05:10:07;10.50;;;4.20;;
72590;SDS011;60625;51.212;5.952;2022-08-30T05:15:09;12.30;;;3.70;;
72590;SDS011;60625;51.212;5.952;2022-08-30T05:20:11;9.50;;;3.50;;
72590;SDS011;60625;51.212;5.952;2022-08-30T05:25:12;9.10;;;3.80;;
72590;SDS011;60625;51.212;5.952;2022-08-30T05:30:14;9.10;;;3.30;;
72590;SDS011;60625;51.212;5.952;2022-08-30T05:35:16;8.50;;;3.40;;
72590;SDS011;60625;51.212;5.952;2022-08-30T05:40:18;14.60;;;3.50;;
72590;SDS011;60625;51.212;5.952;2022-08-30T05:45:19;11.20;;;4.10;;
72590;SDS011;60625;51.212;5.952;2022-08-30T05:50:19;9.00;;;3.80;;
72590;SDS011;60625;51.212;5.952;2022-08-30T05:55:20;7.90;;;3.60;;
72590;SDS011;60625;51.212;5.952;2022-08-30T06:00:21;11.50;;;3.90;;
72590;SDS011;60625;51.212;5.952;2022-08-30T06:05:22;10.50;;;3.70;;
72590;SDS011;60625;51.212;5.952;2022-08-30T06:10:23;7.50;;;3.20;;
72590;SDS011;60625;51.212;5.952;2022-08-30T06:15:23;8.80;;;4.40;;
72590;SDS011;60625;51.212;5.952;2022-08-30T06:20:24;9.50;;;4.40;;
72590;SDS011;60625;51.212;5.952;2022-08-30T06:25:24;13.40;;;3.70;;
72590;SDS011;60625;51.212;5.952;2022-08-30T06:30:25;12.30;;;3.40;;
72590;SDS011;60625;51.212;5.952;2022-08-30T06:35:26;7.90;;;4.00;;
72590;SDS011;60625;51.212;5.952;2022-08-30T06:40:28;8.40;;;3.90;;
72590;SDS011;60625;51.212;5.952;2022-08-30T06:45:29;10.90;;;4.10;;
72590;SDS011;60625;51.212;5.952;2022-08-30T06:50:30;12.10;;;5.00;;
72590;SDS011;60625;51.212;5.952;2022-08-30T06:55:31;10.30;;;4.80;;
72590;SDS011;60625;51.212;5.952;2022-08-30T07:00:32;8.70;;;4.00;;
72590;SDS011;60625;51.212;5.952;2022-08-30T07:05:33;12.70;;;4.80;;
72590;SDS011;60625;51.212;5.952;2022-08-30T07:10:37;17.10;;;4.90;;
72590;SDS011;60625;51.212;5.952;2022-08-30T07:15:42;11.60;;;4.90;;
72590;SDS011;60625;51.212;5.952;2022-08-30T07:20:43;10.00;;;4.00;;
72590;SDS011;60625;51.212;5.952;2022-08-30T07:25:44;8.90;;;4.10;;
72590;SDS011;60625;51.212;5.952;2022-08-30T07:30:44;8.60;;;5.00;;
72590;SDS011;60625;51.212;5.952;2022-08-30T07:35:45;9.10;;;4.70;;
72590;SDS011;60625;51.212;5.952;2022-08-30T07:40:45;17.80;;;4.80;;
72590;SDS011;60625;51.212;5.952;2022-08-30T07:45:46;12.00;;;4.10;;
72590;SDS011;60625;51.212;5.952;2022-08-30T07:50:46;9.00;;;3.80;;
72590;SDS011;60625;51.212;5.952;2022-08-30T07:55:47;9.20;;;3.90;;
72590;SDS011;60625;51.212;5.952;2022-08-30T08:00:48;9.40;;;3.50;;
72590;SDS011;60625;51.212;5.952;2022-08-30T08:05:48;17.70;;;3.80;;
72590;SDS011;60625;51.212;5.952;2022-08-30T08:10:49;10.20;;;4.60;;
72590;SDS011;60625;51.212;5.952;2022-08-30T08:15:49;8.90;;;3.90;;
72590;SDS011;60625;51.212;5.952;2022-08-30T08:20:50;9.90;;;3.70;;
72590;SDS011;60625;51.212;5.952;2022-08-30T08:25:50;12.30;;;3.80;;
72590;SDS011;60625;51.212;5.952;2022-08-30T08:30:51;12.30;;;4.20;;
72590;SDS011;60625;51.212;5.952;2022-08-30T08:35:51;10.50;;;4.40;;
72590;SDS011;60625;51.212;5.952;2022-08-30T08:41:04;10.30;;;4.50;;
72590;SDS011;60625;51.212;5.952;2022-08-30T08:51:33;9.40;;;4.20;;
72590;SDS011;60625;51.212;5.952;2022-08-30T08:56:54;11.10;;;4.00;;
72590;SDS011;60625;51.212;5.952;2022-08-30T09:01:58;10.70;;;3.70;;
72590;SDS011;60625;51.212;5.952;2022-08-30T09:07:16;10.10;;;3.70;;
72590;SDS011;60625;51.212;5.952;2022-08-30T09:12:21;9.00;;;3.60;;
72590;SDS011;60625;51.212;5.952;2022-08-30T09:17:22;7.90;;;3.40;;
72590;SDS011;60625;51.212;5.952;2022-08-30T09:27:36;9.30;;;4.40;;
72590;SDS011;60625;51.212;5.952;2022-08-30T09:32:40;9.60;;;3.60;;
72590;SDS011;60625;51.212;5.952;2022-08-30T09:37:46;9.70;;;3.80;;
72590;SDS011;60625;51.212;5.952;2022-08-30T09:48:31;8.70;;;3.50;;
72590;SDS011;60625;51.212;5.952;2022-08-30T09:53:35;8.60;;;3.40;;
72590;SDS011;60625;51.212;5.952;2022-08-30T10:04:45;6.60;;;3.10;;
72590;SDS011;60625;51.212;5.952;2022-08-30T10:15:40;5.80;;;2.70;;
72590;SDS011;60625;51.212;5.952;2022-08-30T10:21:10;10.40;;;3.00;;
72590;SDS011;60625;51.212;5.952;2022-08-30T10:26:25;9.90;;;2.50;;
72590;SDS011;60625;51.212;5.952;2022-08-30T10:37:16;10.40;;;3.00;;
72590;SDS011;60625;51.212;5.952;2022-08-30T10:42:24;5.60;;;2.70;;
72590;SDS011;60625;51.212;5.952;2022-08-30T10:47:32;7.20;;;1.80;;
72590;SDS011;60625;51.212;5.952;2022-08-30T10:52:43;6.20;;;2.10;;
72590;SDS011;60625;51.212;5.952;2022-08-30T10:57:52;9.30;;;2.00;;
72590;SDS011;60625;51.212;5.952;2022-08-30T11:08:36;8.00;;;2.70;;
72590;SDS011;60625;51.212;5.952;2022-08-30T11:13:47;5.80;;;2.20;;
72590;SDS011;60625;51.212;5.952;2022-08-30T11:18:53;14.20;;;2.40;;
72590;SDS011;60625;51.212;5.952;2022-08-30T11:24:02;8.20;;;2.50;;
72590;SDS011;60625;51.212;5.952;2022-08-30T11:44:48;9.50;;;1.90;;
72590;SDS011;60625;51.212;5.952;2022-08-30T11:50:03;7.90;;;2.10;;
72590;SDS011;60625;51.212;5.952;2022-08-30T12:06:58;6.10;;;1.90;;
72590;SDS011;60625;51.212;5.952;2022-08-30T12:17:55;7.90;;;2.00;;
72590;SDS011;60625;51.212;5.952;2022-08-30T12:28:28;9.30;;;1.80;;
72590;SDS011;60625;51.212;5.952;2022-08-30T12:33:39;6.60;;;2.20;;
72590;SDS011;60625;51.212;5.952;2022-08-30T12:38:43;5.50;;;2.00;;
72590;SDS011;60625;51.212;5.952;2022-08-30T12:43:50;4.70;;;1.40;;
72590;SDS011;60625;51.212;5.952;2022-08-30T12:48:51;8.70;;;2.00;;
72590;SDS011;60625;51.212;5.952;2022-08-30T12:53:52;7.70;;;2.30;;
72590;SDS011;60625;51.212;5.952;2022-08-30T12:58:52;8.40;;;1.80;;
72590;SDS011;60625;51.212;5.952;2022-08-30T13:04:01;7.50;;;1.90;;
72590;SDS011;60625;51.212;5.952;2022-08-30T13:14:44;12.60;;;2.40;;
72590;SDS011;60625;51.212;5.952;2022-08-30T13:25:03;5.90;;;2.00;;
72590;SDS011;60625;51.212;5.952;2022-08-30T13:30:11;8.20;;;2.20;;
72590;SDS011;60625;51.212;5.952;2022-08-30T13:35:15;6.00;;;1.60;;
72590;SDS011;60625;51.212;5.952;2022-08-30T13:40:16;7.10;;;2.00;;
72590;SDS011;60625;51.212;5.952;2022-08-30T13:45:19;7.90;;;2.20;;
72590;SDS011;60625;51.212;5.952;2022-08-30T13:50:19;6.10;;;2.50;;
72590;SDS011;60625;51.212;5.952;2022-08-30T13:55:20;6.70;;;2.30;;
72590;SDS011;60625;51.212;5.952;2022-08-30T14:00:21;6.70;;;1.90;;
72590;SDS011;60625;51.212;5.952;2022-08-30T14:05:29;9.60;;;2.10;;
72590;SDS011;60625;51.212;5.952;2022-08-30T14:10:32;5.70;;;1.70;;
72590;SDS011;60625;51.212;5.952;2022-08-30T14:15:33;6.00;;;1.70;;
72590;SDS011;60625;51.212;5.952;2022-08-30T14:20:34;4.80;;;1.90;;
72590;SDS011;60625;51.212;5.952;2022-08-30T14:25:35;8.60;;;2.00;;
72590;SDS011;60625;51.212;5.952;2022-08-30T14:30:35;13.40;;;2.40;;
72590;SDS011;60625;51.212;5.952;2022-08-30T14:35:38;7.20;;;2.30;;
72590;SDS011;60625;51.212;5.952;2022-08-30T14:40:38;8.60;;;2.00;;
72590;SDS011;60625;51.212;5.952;2022-08-30T14:45:39;8.70;;;2.00;;
72590;SDS011;60625;51.212;5.952;2022-08-30T14:50:39;9.40;;;2.50;;
72590;SDS011;60625;51.212;5.952;2022-08-30T14:55:40;7.80;;;2.00;;
72590;SDS011;60625;51.212;5.952;2022-08-30T15:00:41;10.00;;;1.90;;
72590;SDS011;60625;51.212;5.952;2022-08-30T15:05:48;5.90;;;2.30;;
72590;SDS011;60625;51.212;5.952;2022-08-30T15:10:49;6.40;;;1.90;;
72590;SDS011;60625;51.212;5.952;2022-08-30T15:15:50;5.90;;;2.00;;
72590;SDS011;60625;51.212;5.952;2022-08-30T15:20:51;7.10;;;1.60;;
72590;SDS011;60625;51.212;5.952;2022-08-30T15:25:52;8.30;;;1.80;;
72590;SDS011;60625;51.212;5.952;2022-08-30T15:30:53;5.50;;;2.10;;
72590;SDS011;60625;51.212;5.952;2022-08-30T15:35:59;5.00;;;1.50;;
72590;SDS011;60625;51.212;5.952;2022-08-30T15:41:09;5.70;;;1.60;;
72590;SDS011;60625;51.212;5.952;2022-08-30T15:46:20;6.10;;;1.80;;
72590;SDS011;60625;51.212;5.952;2022-08-30T15:51:24;7.30;;;2.10;;
72590;SDS011;60625;51.212;5.952;2022-08-30T15:56:25;5.40;;;1.90;;
72590;SDS011;60625;51.212;5.952;2022-08-30T16:01:25;4.40;;;1.60;;
72590;SDS011;60625;51.212;5.952;2022-08-30T16:06:29;8.20;;;1.70;;
72590;SDS011;60625;51.212;5.952;2022-08-30T16:11:31;5.60;;;2.00;;
72590;SDS011;60625;51.212;5.952;2022-08-30T16:16:32;8.50;;;1.80;;
72590;SDS011;60625;51.212;5.952;2022-08-30T16:21:34;6.30;;;2.00;;
72590;SDS011;60625;51.212;5.952;2022-08-30T16:26:36;5.90;;;1.60;;
72590;SDS011;60625;51.212;5.952;2022-08-30T16:31:37;5.70;;;1.40;;
72590;SDS011;60625;51.212;5.952;2022-08-30T16:36:38;5.80;;;1.40;;
72590;SDS011;60625;51.212;5.952;2022-08-30T16:41:39;4.70;;;1.20;;
72590;SDS011;60625;51.212;5.952;2022-08-30T16:46:41;5.20;;;1.40;;
72590;SDS011;60625;51.212;5.952;2022-08-30T16:51:41;6.80;;;1.60;;
72590;SDS011;60625;51.212;5.952;2022-08-30T16:56:42;7.40;;;1.10;;
72590;SDS011;60625;51.212;5.952;2022-08-30T17:01:43;5.90;;;1.50;;
72590;SDS011;60625;51.212;5.952;2022-08-30T17:06:43;4.50;;;1.60;;
72590;SDS011;60625;51.212;5.952;2022-08-30T17:11:44;5.00;;;1.70;;
72590;SDS011;60625;51.212;5.952;2022-08-30T17:16:46;5.30;;;1.50;;
72590;SDS011;60625;51.212;5.952;2022-08-30T17:21:46;6.10;;;1.50;;
72590;SDS011;60625;51.212;5.952;2022-08-30T17:26:46;7.80;;;1.40;;
72590;SDS011;60625;51.212;5.952;2022-08-30T17:31:47;6.80;;;1.20;;
72590;SDS011;60625;51.212;5.952;2022-08-30T17:36:49;11.20;;;1.70;;
72590;SDS011;60625;51.212;5.952;2022-08-30T17:41:51;8.00;;;2.90;;
72590;SDS011;60625;51.212;5.952;2022-08-30T17:46:53;5.40;;;1.60;;
72590;SDS011;60625;51.212;5.952;2022-08-30T17:51:55;6.10;;;1.70;;
72590;SDS011;60625;51.212;5.952;2022-08-30T17:56:57;3.20;;;1.10;;
72590;SDS011;60625;51.212;5.952;2022-08-30T18:01:58;5.00;;;1.30;;
72590;SDS011;60625;51.212;5.952;2022-08-30T18:06:59;3.50;;;1.10;;
72590;SDS011;60625;51.212;5.952;2022-08-30T18:12:00;6.30;;;1.40;;
72590;SDS011;60625;51.212;5.952;2022-08-30T18:17:00;5.10;;;0.90;;
72590;SDS011;60625;51.212;5.952;2022-08-30T18:22:00;9.90;;;1.30;;
72590;SDS011;60625;51.212;5.952;2022-08-30T18:27:03;6.10;;;1.30;;
72590;SDS011;60625;51.212;5.952;2022-08-30T18:32:04;7.10;;;1.40;;
72590;SDS011;60625;51.212;5.952;2022-08-30T18:37:05;5.70;;;1.00;;
72590;SDS011;60625;51.212;5.952;2022-08-30T18:42:05;7.10;;;1.30;;
72590;SDS011;60625;51.212;5.952;2022-08-30T18:47:06;6.00;;;1.00;;
72590;SDS011;60625;51.212;5.952;2022-08-30T18:52:08;6.10;;;2.10;;
72590;SDS011;60625;51.212;5.952;2022-08-30T18:57:10;6.90;;;1.70;;
72590;SDS011;60625;51.212;5.952;2022-08-30T19:02:14;6.00;;;1.50;;
72590;SDS011;60625;51.212;5.952;2022-08-30T19:07:17;6.10;;;1.40;;
72590;SDS011;60625;51.212;5.952;2022-08-30T19:12:18;4.30;;;1.40;;
72590;SDS011;60625;51.212;5.952;2022-08-30T19:17:18;6.10;;;1.50;;
72590;SDS011;60625;51.212;5.952;2022-08-30T19:22:20;4.90;;;1.10;;
72590;SDS011;60625;51.212;5.952;2022-08-30T19:27:22;4.40;;;1.50;;
72590;SDS011;60625;51.212;5.952;2022-08-30T19:32:22;5.70;;;1.20;;
72590;SDS011;60625;51.212;5.952;2022-08-30T19:37:23;5.70;;;1.40;;
72590;SDS011;60625;51.212;5.952;2022-08-30T19:42:23;5.30;;;1.20;;
72590;SDS011;60625;51.212;5.952;2022-08-30T19:47:24;6.80;;;1.50;;
72590;SDS011;60625;51.212;5.952;2022-08-30T19:52:24;9.20;;;1.20;;
72590;SDS011;60625;51.212;5.952;2022-08-30T19:57:29;5.00;;;1.20;;
72590;SDS011;60625;51.212;5.952;2022-08-30T20:02:30;4.60;;;1.50;;
72590;SDS011;60625;51.212;5.952;2022-08-30T20:07:31;7.50;;;1.30;;
72590;SDS011;60625;51.212;5.952;2022-08-30T20:12:35;3.70;;;1.20;;
72590;SDS011;60625;51.212;5.952;2022-08-30T20:17:37;5.50;;;1.30;;
72590;SDS011;60625;51.212;5.952;2022-08-30T20:22:38;4.80;;;1.50;;
72590;SDS011;60625;51.212;5.952;2022-08-30T20:27:40;5.90;;;1.50;;
72590;SDS011;60625;51.212;5.952;2022-08-30T20:32:41;4.60;;;1.00;;
72590;SDS011;60625;51.212;5.952;2022-08-30T20:37:46;3.90;;;1.00;;
72590;SDS011;60625;51.212;5.952;2022-08-30T20:42:46;4.20;;;1.00;;
72590;SDS011;60625;51.212;5.952;2022-08-30T20:47:49;6.00;;;1.00;;
72590;SDS011;60625;51.212;5.952;2022-08-30T20:52:50;4.00;;;1.20;;
72590;SDS011;60625;51.212;5.952;2022-08-30T20:57:51;4.20;;;1.00;;
72590;SDS011;60625;51.212;5.952;2022-08-30T21:02:51;4.70;;;1.30;;
72590;SDS011;60625;51.212;5.952;2022-08-30T21:07:52;8.70;;;1.30;;
72590;SDS011;60625;51.212;5.952;2022-08-30T21:12:52;8.30;;;1.50;;
72590;SDS011;60625;51.212;5.952;2022-08-30T21:17:53;5.40;;;0.90;;
72590;SDS011;60625;51.212;5.952;2022-08-30T21:22:53;4.30;;;0.90;;
72590;SDS011;60625;51.212;5.952;2022-08-30T21:27:55;4.60;;;1.10;;
72590;SDS011;60625;51.212;5.952;2022-08-30T21:32:57;3.50;;;1.20;;
72590;SDS011;60625;51.212;5.952;2022-08-30T21:38:01;7.80;;;1.80;;
72590;SDS011;60625;51.212;5.952;2022-08-30T21:43:06;5.40;;;1.70;;
72590;SDS011;60625;51.212;5.952;2022-08-30T21:48:08;4.00;;;1.60;;
72590;SDS011;60625;51.212;5.952;2022-08-30T21:53:09;5.30;;;1.50;;
72590;SDS011;60625;51.212;5.952;2022-08-30T21:58:10;6.30;;;1.60;;
72590;SDS011;60625;51.212;5.952;2022-08-30T22:03:10;6.80;;;2.00;;
72590;SDS011;60625;51.212;5.952;2022-08-30T22:08:11;5.50;;;1.40;;
72590;SDS011;60625;51.212;5.952;2022-08-30T22:13:12;4.20;;;1.50;;
72590;SDS011;60625;51.212;5.952;2022-08-30T22:18:13;4.90;;;1.50;;
72590;SDS011;60625;51.212;5.952;2022-08-30T22:23:15;4.90;;;1.80;;
72590;SDS011;60625;51.212;5.952;2022-08-30T22:28:20;6.80;;;1.20;;
72590;SDS011;60625;51.212;5.952;2022-08-30T22:33:21;4.90;;;1.20;;
72590;SDS011;60625;51.212;5.952;2022-08-30T22:38:23;7.80;;;1.20;;
72590;SDS011;60625;51.212;5.952;2022-08-30T22:43:23;4.10;;;1.30;;
72590;SDS011;60625;51.212;5.952;2022-08-30T22:48:24;3.70;;;1.20;;
72590;SDS011;60625;51.212;5.952;2022-08-30T22:53:25;3.90;;;0.80;;
72590;SDS011;60625;51.212;5.952;2022-08-30T22:58:25;4.80;;;0.70;;
72590;SDS011;60625;51.212;5.952;2022-08-30T23:03:26;6.30;;;1.10;;
72590;SDS011;60625;51.212;5.952;2022-08-30T23:08:27;4.20;;;1.20;;
72590;SDS011;60625;51.212;5.952;2022-08-30T23:13:27;3.00;;;1.00;;
72590;SDS011;60625;51.212;5.952;2022-08-30T23:18:28;5.30;;;1.30;;
72590;SDS011;60625;51.212;5.952;2022-08-30T23:23:28;3.50;;;1.20;;
72590;SDS011;60625;51.212;5.952;2022-08-30T23:28:48;4.10;;;1.10;;
72590;SDS011;60625;51.212;5.952;2022-08-30T23:34:06;6.30;;;1.20;;
72590;SDS011;60625;51.212;5.952;2022-08-30T23:39:25;4.90;;;0.90;;
72590;SDS011;60625;51.212;5.952;2022-08-30T23:44:45;5.60;;;1.20;;
72590;SDS011;60625;51.212;5.952;2022-08-30T23:50:04;4.00;;;1.40;;
72590;SDS011;60625;51.212;5.952;2022-08-30T23:55:25;4.50;;;1.00;;
